createdAt,value
2018-08-07T00:00:10.765Z,20.36
2018-08-07T00:02:40.139Z,20.31
2018-08-07T00:05:09.116Z,20.26
2018-08-07T00:07:38.382Z,20.24
2018-08-07T00:10:08.536Z,20.21
2018-08-07T00:12:37.902Z,20.19
2018-08-07T00:15:09.388Z,20.17
2018-08-07T00:17:38.194Z,20.11
2018-08-07T00:20:07.573Z,20.07
2018-08-07T00:22:36.523Z,20.05
2018-08-07T00:25:06.432Z,20.03
2018-08-07T00:27:35.102Z,20.05
2018-08-07T00:30:04.398Z,20.01
2018-08-07T00:32:33.102Z,20.04
2018-08-07T00:35:01.808Z,20.09
2018-08-07T00:37:30.563Z,20.05
2018-08-07T00:39:59.327Z,20.05
2018-08-07T00:42:28.356Z,19.98
2018-08-07T00:44:57.024Z,19.98
2018-08-07T00:47:25.709Z,19.91
2018-08-07T00:49:54.289Z,19.87
2018-08-07T00:52:23.095Z,19.87
2018-08-07T00:54:51.772Z,19.84
2018-08-07T00:57:20.423Z,19.82
2018-08-07T00:59:49.121Z,19.78
2018-08-07T01:02:18.311Z,19.76
2018-08-07T01:04:47.233Z,19.75
2018-08-07T01:07:15.886Z,19.69
2018-08-07T01:09:44.711Z,19.70
2018-08-07T01:12:13.363Z,19.74
2018-08-07T01:14:43.682Z,19.69
2018-08-07T01:17:12.628Z,19.65
2018-08-07T01:19:41.583Z,19.60
2018-08-07T01:22:11.182Z,19.57
2018-08-07T01:24:39.809Z,19.61
2018-08-07T01:27:08.576Z,19.58
2018-08-07T01:29:37.429Z,19.56
2018-08-07T01:32:06.152Z,19.53
2018-08-07T01:34:35.397Z,19.43
2018-08-07T01:37:03.968Z,19.40
2018-08-07T01:39:32.649Z,19.37
2018-08-07T01:42:02.062Z,19.33
2018-08-07T01:44:30.906Z,19.28
2018-08-07T01:46:59.682Z,19.22
2018-08-07T01:49:28.374Z,19.24
2018-08-07T01:51:57.232Z,19.27
2018-08-07T01:54:26.136Z,19.24
2018-08-07T01:56:55.272Z,19.18
2018-08-07T01:59:24.002Z,19.08
2018-08-07T02:01:52.794Z,19.05
2018-08-07T02:04:22.118Z,18.98
2018-08-07T02:06:51.596Z,19.04
2018-08-07T02:09:20.570Z,18.99
2018-08-07T02:11:49.484Z,18.97
2018-08-07T02:14:19.003Z,18.95
2018-08-07T02:16:48.318Z,18.93
2018-08-07T02:19:17.081Z,18.91
2018-08-07T02:21:45.711Z,18.86
2018-08-07T02:24:15.033Z,18.80
2018-08-07T02:26:44.067Z,18.80
2018-08-07T02:29:13.019Z,18.78
2018-08-07T02:31:41.740Z,18.73
2018-08-07T02:34:10.792Z,18.68
2018-08-07T02:36:39.964Z,18.64
2018-08-07T02:39:10.231Z,18.59
2018-08-07T02:41:39.409Z,18.58
2018-08-07T02:44:08.537Z,18.61
2018-08-07T02:46:37.485Z,18.55
2018-08-07T02:49:06.166Z,18.56
2018-08-07T02:51:35.312Z,18.57
2018-08-07T02:54:04.483Z,18.56
2018-08-07T02:56:33.093Z,18.54
2018-08-07T02:59:01.699Z,18.48
2018-08-07T03:01:30.467Z,18.43
2018-08-07T03:03:59.422Z,18.43
2018-08-07T03:06:28.135Z,18.42
2018-08-07T03:08:56.900Z,18.41
2018-08-07T03:11:25.547Z,18.37
2018-08-07T03:13:55.113Z,18.35
2018-08-07T03:16:24.660Z,18.34
2018-08-07T03:18:53.873Z,18.28
2018-08-07T03:21:23.214Z,18.25
2018-08-07T03:23:51.964Z,18.21
2018-08-07T03:26:21.167Z,18.18
2018-08-07T03:28:50.644Z,18.14
2018-08-07T03:31:19.367Z,18.14
2018-08-07T03:33:48.278Z,18.13
2018-08-07T03:36:17.467Z,18.09
2018-08-07T03:38:46.082Z,18.07
2018-08-07T03:41:14.892Z,18.08
2018-08-07T03:43:43.524Z,18.09
2018-08-07T03:46:12.367Z,18.11
2018-08-07T03:48:41.832Z,18.09
2018-08-07T03:51:10.677Z,17.97
2018-08-07T03:53:39.231Z,17.95
2018-08-07T03:56:07.964Z,17.90
2018-08-07T03:58:38.287Z,17.92
2018-08-07T04:01:07.692Z,17.89
2018-08-07T04:03:36.978Z,17.87
2018-08-07T04:06:05.742Z,17.93
2018-08-07T04:08:34.409Z,17.95
2018-08-07T04:11:03.608Z,17.97
2018-08-07T04:13:35.045Z,17.94
2018-08-07T04:16:04.049Z,18.01
2018-08-07T04:18:33.464Z,18.02
2018-08-07T04:21:02.488Z,18.06
2018-08-07T04:23:31.418Z,18.06
2018-08-07T04:26:00.191Z,18.09
2018-08-07T04:28:29.167Z,18.15
2018-08-07T04:30:58.318Z,18.22
2018-08-07T04:33:27.265Z,18.29
2018-08-07T04:35:55.982Z,18.34
2018-08-07T04:38:25.034Z,18.43
2018-08-07T04:40:53.959Z,18.49
2018-08-07T04:43:22.536Z,18.59
2018-08-07T04:45:51.398Z,18.69
2018-08-07T04:48:20.089Z,18.80
2018-08-07T04:50:48.710Z,18.88
2018-08-07T04:53:17.444Z,18.99
2018-08-07T04:55:46.235Z,19.11
2018-08-07T04:58:14.913Z,19.21
2018-08-07T05:00:43.785Z,19.30
2018-08-07T05:03:12.430Z,19.42
2018-08-07T05:05:41.047Z,19.60
2018-08-07T05:08:09.812Z,19.88
2018-08-07T05:10:39.340Z,20.18
2018-08-07T05:13:08.317Z,20.47
2018-08-07T05:15:37.223Z,20.86
2018-08-07T05:18:06.154Z,21.15
2018-08-07T05:20:35.008Z,21.36
2018-08-07T05:23:03.926Z,21.62
2018-08-07T05:25:32.752Z,21.74
2018-08-07T05:28:01.719Z,21.71
2018-08-07T05:30:30.548Z,21.97
2018-08-07T05:33:00.140Z,22.13
2018-08-07T05:35:29.421Z,22.30
2018-08-07T05:37:58.460Z,22.66
2018-08-07T05:40:28.005Z,23.07
2018-08-07T05:42:56.904Z,23.40
2018-08-07T05:45:26.299Z,23.74
2018-08-07T05:47:55.458Z,23.52
2018-08-07T05:50:24.482Z,23.57
2018-08-07T05:52:53.223Z,23.75
2018-08-07T05:55:22.208Z,23.96
2018-08-07T05:57:51.507Z,24.25
2018-08-07T06:00:21.032Z,24.80
2018-08-07T06:02:50.835Z,24.86
2018-08-07T06:05:19.716Z,25.34
2018-08-07T06:07:49.363Z,25.86
2018-08-07T06:10:18.359Z,26.36
2018-08-07T06:12:47.734Z,26.68
2018-08-07T06:15:17.404Z,26.84
2018-08-07T06:17:47.035Z,27.30
2018-08-07T06:20:16.298Z,27.34
2018-08-07T06:22:45.298Z,27.71
2018-08-07T06:25:14.078Z,28.27
2018-08-07T06:27:43.044Z,28.49
2018-08-07T06:30:17.751Z,28.68
2018-08-07T06:32:47.700Z,28.60
2018-08-07T06:35:16.999Z,28.88
2018-08-07T06:37:45.892Z,28.25
2018-08-07T06:40:14.964Z,27.57
2018-08-07T06:42:44.580Z,26.92
2018-08-07T06:45:15.009Z,26.28
2018-08-07T06:47:43.713Z,25.77
2018-08-07T06:50:15.794Z,25.23
2018-08-07T06:52:46.169Z,24.82
2018-08-07T06:55:15.172Z,24.59
2018-08-07T06:57:44.016Z,24.39
2018-08-07T07:00:20.460Z,24.38
2018-08-07T07:02:49.352Z,24.51
2018-08-07T07:05:18.200Z,24.60
2018-08-07T07:07:47.083Z,24.52
2018-08-07T07:10:16.307Z,24.46
2018-08-07T07:12:45.764Z,24.34
2018-08-07T07:15:15.496Z,24.27
2018-08-07T07:17:46.223Z,24.15
2018-08-07T07:20:16.235Z,24.25
2018-08-07T07:22:46.001Z,24.07
2018-08-07T07:25:15.718Z,24.11
2018-08-07T07:27:44.679Z,24.09
2018-08-07T07:30:21.775Z,24.23
2018-08-07T07:32:52.765Z,24.43
2018-08-07T07:35:21.425Z,24.45
2018-08-07T07:37:50.363Z,24.35
2018-08-07T07:40:19.549Z,24.20
2018-08-07T07:42:48.448Z,24.24
2018-08-07T07:45:18.545Z,24.20
2018-08-07T07:47:47.344Z,24.23
2018-08-07T07:50:18.686Z,24.14
2018-08-07T07:52:47.719Z,24.29
2018-08-07T07:55:17.350Z,24.41
2018-08-07T07:57:46.259Z,24.50
2018-08-07T08:00:25.830Z,24.51
2018-08-07T08:02:54.703Z,24.54
2018-08-07T08:05:24.746Z,24.81
2018-08-07T08:07:54.108Z,24.85
2018-08-07T08:10:23.049Z,24.84
2018-08-07T08:12:53.339Z,24.63
2018-08-07T08:15:22.411Z,24.60
2018-08-07T08:17:51.375Z,24.54
2018-08-07T08:20:22.439Z,24.64
2018-08-07T08:22:51.970Z,24.99
2018-08-07T08:25:21.574Z,25.41
2018-08-07T08:27:50.424Z,25.95
2018-08-07T08:30:19.485Z,26.16
2018-08-07T08:32:48.241Z,26.58
2018-08-07T08:35:19.204Z,27.71
2018-08-07T08:37:48.354Z,29.57
2018-08-07T08:40:19.561Z,31.41
2018-08-07T08:42:48.804Z,32.04
2018-08-07T08:45:18.899Z,33.43
2018-08-07T08:47:49.160Z,33.89
2018-08-07T08:50:19.355Z,35.99
2018-08-07T08:52:48.196Z,36.51
2018-08-07T08:55:17.260Z,37.57
2018-08-07T08:57:46.409Z,38.67
2018-08-07T09:00:27.166Z,38.93
2018-08-07T09:02:57.286Z,38.71
2018-08-07T09:05:26.540Z,39.33
2018-08-07T09:07:56.282Z,39.62
2018-08-07T09:10:28.474Z,41.01
2018-08-07T09:12:59.081Z,42.64
2018-08-07T09:15:28.216Z,41.34
2018-08-07T09:17:57.306Z,41.73
2018-08-07T09:20:27.926Z,40.77
2018-08-07T09:22:57.406Z,41.23
2018-08-07T09:25:27.769Z,42.55
2018-08-07T09:27:56.606Z,43.00
2018-08-07T09:30:27.919Z,43.52
2018-08-07T09:32:57.289Z,44.20
2018-08-07T09:35:26.436Z,41.46
2018-08-07T09:37:56.081Z,41.62
2018-08-07T09:40:25.497Z,41.89
2018-08-07T09:42:55.534Z,43.40
2018-08-07T09:45:27.241Z,43.71
2018-08-07T09:47:57.023Z,44.49
2018-08-07T09:50:26.155Z,45.48
2018-08-07T09:52:55.348Z,45.90
2018-08-07T09:55:25.057Z,45.68
2018-08-07T09:57:54.105Z,45.98
2018-08-07T10:00:28.404Z,46.95
2018-08-07T10:03:02.891Z,47.46
2018-08-07T10:05:33.229Z,46.60
2018-08-07T10:08:02.451Z,48.03
2018-08-07T10:10:31.738Z,48.09
2018-08-07T10:13:01.356Z,46.93
2018-08-07T10:15:31.157Z,46.60
2018-08-07T10:18:00.563Z,46.51
2018-08-07T10:20:29.551Z,46.15
2018-08-07T10:22:58.560Z,45.87
2018-08-07T10:25:27.788Z,46.88
2018-08-07T10:27:57.054Z,47.68
2018-08-07T10:30:27.344Z,47.29
2018-08-07T10:32:56.539Z,47.80
2018-08-07T10:35:25.610Z,48.12
2018-08-07T10:37:55.320Z,47.82
2018-08-07T10:40:26.084Z,47.60
2018-08-07T10:42:55.421Z,46.69
2018-08-07T10:45:25.780Z,46.65
2018-08-07T10:47:54.699Z,45.53
2018-08-07T10:50:29.973Z,44.43
2018-08-07T10:53:00.105Z,42.43
2018-08-07T10:55:29.121Z,41.13
2018-08-07T10:57:59.654Z,40.30
2018-08-07T11:00:30.699Z,39.26
2018-08-07T11:03:00.019Z,37.91
2018-08-07T11:05:29.685Z,37.43
2018-08-07T11:07:58.996Z,37.20
2018-08-07T11:10:28.691Z,36.83
2018-08-07T11:12:57.789Z,36.48
2018-08-07T11:15:35.585Z,36.26
2018-08-07T11:18:05.025Z,35.24
2018-08-07T11:20:34.744Z,35.21
2018-08-07T11:23:04.489Z,34.78
2018-08-07T11:25:34.086Z,34.23
2018-08-07T11:28:03.111Z,34.28
2018-08-07T11:30:32.515Z,33.88
2018-08-07T11:33:03.184Z,33.94
2018-08-07T11:35:32.466Z,33.64
2018-08-07T11:38:02.754Z,33.61
2018-08-07T11:40:31.908Z,33.09
2018-08-07T11:43:02.057Z,32.90
2018-08-07T11:45:32.174Z,32.38
2018-08-07T11:48:01.521Z,31.97
2018-08-07T11:50:32.871Z,31.93
2018-08-07T11:53:01.959Z,31.78
2018-08-07T11:55:31.047Z,31.86
2018-08-07T11:58:00.453Z,31.63
2018-08-07T12:00:37.186Z,31.43
2018-08-07T12:03:07.645Z,30.82
2018-08-07T12:05:36.801Z,30.07
2018-08-07T12:08:07.096Z,29.60
2018-08-07T12:10:36.337Z,29.19
2018-08-07T12:13:05.559Z,28.75
2018-08-07T12:15:34.540Z,28.35
2018-08-07T12:18:03.805Z,28.18
2018-08-07T12:20:33.090Z,27.96
2018-08-07T12:23:01.982Z,27.95
2018-08-07T12:25:31.624Z,27.72
2018-08-07T12:28:00.822Z,27.63
2018-08-07T12:30:30.990Z,27.61
2018-08-07T12:33:00.726Z,27.63
2018-08-07T12:35:29.725Z,27.57
2018-08-07T12:37:58.614Z,27.49
2018-08-07T12:40:29.572Z,27.25
2018-08-07T12:43:03.044Z,27.06
2018-08-07T12:45:32.131Z,26.79
2018-08-07T12:48:01.298Z,26.67
2018-08-07T12:50:30.590Z,26.65
2018-08-07T12:52:59.811Z,26.58
2018-08-07T12:55:29.066Z,26.44
2018-08-07T12:57:58.245Z,26.48
2018-08-07T13:00:29.392Z,26.46
2018-08-07T13:02:58.550Z,26.35
2018-08-07T13:05:27.678Z,26.27
2018-08-07T13:07:56.882Z,26.11
2018-08-07T13:10:26.362Z,25.93
2018-08-07T13:12:56.242Z,25.86
2018-08-07T13:15:25.280Z,25.68
2018-08-07T13:17:54.153Z,25.47
2018-08-07T13:20:23.063Z,25.23
2018-08-07T13:22:52.812Z,24.93
2018-08-07T13:25:22.785Z,24.75
2018-08-07T13:27:51.626Z,24.72
2018-08-07T13:30:23.947Z,24.44
2018-08-07T13:32:52.782Z,24.35
2018-08-07T13:35:22.395Z,24.23
2018-08-07T13:37:53.210Z,24.24
2018-08-07T13:40:23.535Z,24.35
2018-08-07T13:42:52.879Z,24.36
2018-08-07T13:45:24.721Z,23.84
2018-08-07T13:47:53.584Z,23.57
2018-08-07T13:50:23.951Z,23.53
2018-08-07T13:52:53.257Z,23.60
2018-08-07T13:55:23.103Z,23.67
2018-08-07T13:57:52.437Z,23.67
2018-08-07T14:00:25.314Z,23.78
2018-08-07T14:02:54.884Z,23.75
2018-08-07T14:05:24.272Z,23.71
2018-08-07T14:07:54.521Z,23.80
2018-08-07T14:10:26.192Z,23.70
2018-08-07T14:12:55.264Z,23.74
2018-08-07T14:15:25.716Z,23.71
2018-08-07T14:17:54.675Z,23.95
2018-08-07T14:20:23.811Z,24.19
2018-08-07T14:22:53.419Z,24.42
2018-08-07T14:25:24.885Z,24.60
2018-08-07T14:27:54.537Z,24.80
2018-08-07T14:30:24.739Z,25.08
2018-08-07T14:32:53.996Z,25.04
2018-08-07T14:35:23.311Z,25.06
2018-08-07T14:37:52.280Z,24.84
2018-08-07T14:40:22.632Z,24.62
2018-08-07T14:42:52.053Z,24.59
2018-08-07T14:45:23.324Z,24.38
2018-08-07T14:47:52.868Z,24.32
2018-08-07T14:50:23.405Z,24.34
2018-08-07T14:52:52.532Z,24.21
2018-08-07T14:55:21.892Z,24.02
2018-08-07T14:57:50.990Z,23.80
2018-08-07T15:00:26.229Z,23.84
2018-08-07T15:02:55.511Z,23.84
2018-08-07T15:05:24.572Z,23.90
2018-08-07T15:07:53.747Z,24.00
2018-08-07T15:10:23.832Z,24.12
2018-08-07T15:12:52.853Z,24.18
2018-08-07T15:15:24.434Z,24.21
2018-08-07T15:17:53.564Z,24.18
2018-08-07T15:20:24.273Z,24.21
2018-08-07T15:22:53.601Z,23.98
2018-08-07T15:25:22.857Z,23.90
2018-08-07T15:27:52.352Z,23.78
2018-08-07T15:30:22.643Z,23.73
2018-08-07T15:32:52.207Z,23.66
2018-08-07T15:35:22.293Z,23.71
2018-08-07T15:37:52.369Z,23.80
2018-08-07T15:40:22.089Z,23.85
2018-08-07T15:42:51.751Z,23.96
2018-08-07T15:45:22.164Z,24.06
2018-08-07T15:47:51.618Z,24.13
2018-08-07T15:50:22.311Z,24.14
2018-08-07T15:52:53.674Z,24.17
2018-08-07T15:55:24.811Z,24.18
2018-08-07T15:57:54.107Z,24.21
2018-08-07T16:00:26.358Z,24.27
2018-08-07T16:02:56.328Z,24.35
2018-08-07T16:05:25.516Z,24.32
2018-08-07T16:07:54.871Z,24.23
2018-08-07T16:10:24.108Z,24.16
2018-08-07T16:12:54.115Z,24.19
2018-08-07T16:15:23.329Z,24.31
2018-08-07T16:17:53.424Z,24.34
2018-08-07T16:20:23.533Z,24.41
2018-08-07T16:22:52.529Z,24.42
2018-08-07T16:25:23.268Z,24.46
2018-08-07T16:27:52.567Z,24.54
2018-08-07T16:30:26.487Z,24.60
2018-08-07T16:32:56.636Z,24.65
2018-08-07T16:35:25.958Z,24.73
2018-08-07T16:37:54.842Z,24.92
2018-08-07T16:40:24.802Z,25.04
2018-08-07T16:42:55.593Z,25.05
2018-08-07T16:45:25.529Z,25.09
2018-08-07T16:47:54.952Z,25.14
2018-08-07T16:50:26.945Z,25.06
2018-08-07T16:52:57.201Z,24.97
2018-08-07T16:55:27.535Z,24.91
2018-08-07T16:57:56.713Z,24.86
2018-08-07T17:00:25.967Z,24.76
2018-08-07T17:02:55.103Z,24.57
2018-08-07T17:05:24.302Z,24.51
2018-08-07T17:07:53.531Z,24.40
2018-08-07T17:10:25.841Z,24.31
2018-08-07T17:12:57.382Z,24.25
2018-08-07T17:15:27.654Z,24.21
2018-08-07T17:17:57.947Z,24.07
2018-08-07T17:20:27.491Z,24.01
2018-08-07T17:22:57.267Z,23.93
2018-08-07T17:25:28.148Z,23.95
2018-08-07T17:28:00.269Z,23.91
2018-08-07T17:30:30.554Z,23.90
2018-08-07T17:33:01.862Z,23.87
2018-08-07T17:35:31.374Z,23.74
2018-08-07T17:38:00.737Z,23.61
2018-08-07T17:40:30.701Z,23.45
2018-08-07T17:43:01.488Z,23.36
2018-08-07T17:45:31.039Z,23.01
2018-08-07T17:48:00.764Z,22.88
2018-08-07T17:50:30.076Z,22.78
2018-08-07T17:53:01.239Z,22.73
2018-08-07T17:55:31.309Z,22.66
2018-08-07T17:58:01.328Z,22.64
2018-08-07T18:00:31.019Z,22.59
2018-08-07T18:02:59.999Z,22.48
2018-08-07T18:05:29.123Z,22.39
2018-08-07T18:07:58.766Z,22.32
2018-08-07T18:10:28.351Z,22.26
2018-08-07T18:12:59.635Z,22.19
2018-08-07T18:15:29.122Z,22.15
2018-08-07T18:17:59.199Z,22.02
2018-08-07T18:20:28.911Z,21.76
2018-08-07T18:22:57.792Z,21.59
2018-08-07T18:25:27.791Z,21.50
2018-08-07T18:27:57.287Z,21.43
2018-08-07T18:30:26.249Z,21.34
2018-08-07T18:32:56.290Z,21.27
2018-08-07T18:35:26.926Z,21.25
2018-08-07T18:37:56.064Z,21.15
2018-08-07T18:40:24.969Z,21.03
2018-08-07T18:42:54.541Z,20.92
2018-08-07T18:45:23.402Z,20.90
2018-08-07T18:47:52.783Z,20.79
2018-08-07T18:50:23.492Z,20.71
2018-08-07T18:52:52.926Z,20.61
2018-08-07T18:55:22.059Z,20.50
2018-08-07T18:57:51.632Z,20.44
2018-08-07T19:00:22.973Z,20.30
2018-08-07T19:02:52.231Z,20.32
2018-08-07T19:05:22.923Z,20.19
2018-08-07T19:07:53.061Z,20.10
2018-08-07T19:10:22.381Z,20.05
2018-08-07T19:12:51.292Z,19.98
2018-08-07T19:15:20.819Z,19.87
2018-08-07T19:17:50.010Z,19.84
2018-08-07T19:20:20.270Z,19.71
2018-08-07T19:22:49.394Z,19.67
2018-08-07T19:25:18.733Z,19.70
2018-08-07T19:27:47.693Z,19.58
2018-08-07T19:30:18.137Z,19.52
2018-08-07T19:32:47.479Z,19.38
2018-08-07T19:35:16.227Z,19.39
2018-08-07T19:37:45.109Z,19.28
2018-08-07T19:40:15.547Z,19.23
2018-08-07T19:42:45.097Z,19.16
2018-08-07T19:45:14.588Z,19.08
2018-08-07T19:47:44.134Z,19.12
2018-08-07T19:50:14.491Z,19.14
2018-08-07T19:52:43.314Z,19.09
2018-08-07T19:55:15.394Z,19.12
2018-08-07T19:57:44.448Z,19.04
2018-08-07T20:00:16.636Z,19.07
2018-08-07T20:02:46.002Z,19.02
2018-08-07T20:05:15.067Z,18.97
2018-08-07T20:07:44.113Z,18.98
2018-08-07T20:10:14.464Z,18.89
2018-08-07T20:12:44.033Z,18.84
2018-08-07T20:15:20.782Z,18.86
2018-08-07T20:17:50.626Z,18.78
2018-08-07T20:20:19.645Z,18.74
2018-08-07T20:22:48.471Z,18.70
2018-08-07T20:25:17.330Z,18.63
2018-08-07T20:27:46.019Z,18.64
2018-08-07T20:30:18.935Z,18.61
2018-08-07T20:32:48.782Z,18.67
2018-08-07T20:35:17.524Z,18.63
2018-08-07T20:37:46.559Z,18.62
2018-08-07T20:40:19.613Z,18.52
2018-08-07T20:42:48.524Z,18.51
2018-08-07T20:45:18.084Z,18.47
2018-08-07T20:47:47.530Z,18.47
2018-08-07T20:50:20.778Z,18.47
2018-08-07T20:52:50.276Z,18.48
2018-08-07T20:55:19.189Z,18.45
2018-08-07T20:57:48.168Z,18.45
2018-08-07T21:00:20.678Z,18.45
2018-08-07T21:02:49.924Z,18.43
2018-08-07T21:05:18.809Z,18.36
2018-08-07T21:07:47.659Z,18.29
2018-08-07T21:10:18.122Z,18.32
2018-08-07T21:12:47.369Z,18.29
2018-08-07T21:15:16.282Z,18.21
2018-08-07T21:17:45.849Z,18.20
2018-08-07T21:20:17.148Z,18.17
2018-08-07T21:22:46.870Z,18.11
2018-08-07T21:25:18.537Z,18.06
2018-08-07T21:27:48.628Z,18.02
2018-08-07T21:30:19.934Z,17.98
2018-08-07T21:32:48.938Z,18.00
2018-08-07T21:35:17.820Z,17.95
2018-08-07T21:37:47.443Z,17.95
2018-08-07T21:40:19.536Z,17.92
2018-08-07T21:42:49.178Z,17.86
2018-08-07T21:45:18.144Z,17.88
2018-08-07T21:47:47.262Z,17.86
2018-08-07T21:50:18.619Z,17.82
2018-08-07T21:52:47.354Z,17.70
2018-08-07T21:55:18.374Z,17.76
2018-08-07T21:57:47.147Z,17.74
2018-08-07T22:00:37.619Z,17.71
2018-08-07T22:03:07.587Z,17.67
2018-08-07T22:05:36.409Z,17.60
2018-08-07T22:08:05.345Z,17.57
2018-08-07T22:10:34.188Z,17.57
2018-08-07T22:13:02.970Z,17.58
2018-08-07T22:15:31.979Z,17.55
2018-08-07T22:18:01.524Z,17.50
2018-08-07T22:20:30.470Z,17.52
2018-08-07T22:22:59.798Z,17.51
2018-08-07T22:25:29.019Z,17.49
2018-08-07T22:27:58.342Z,17.46
2018-08-07T22:30:27.223Z,17.42
2018-08-07T22:32:56.565Z,17.44
2018-08-07T22:35:25.515Z,17.37
2018-08-07T22:37:54.128Z,17.35
2018-08-07T22:40:22.950Z,17.38
2018-08-07T22:42:51.574Z,17.38
2018-08-07T22:45:21.041Z,17.32
2018-08-07T22:47:49.736Z,17.29
2018-08-07T22:50:19.383Z,17.30
2018-08-07T22:52:48.763Z,17.24
2018-08-07T22:55:18.758Z,17.18
2018-08-07T22:57:50.874Z,17.17
2018-08-07T23:00:21.284Z,17.12
2018-08-07T23:02:49.943Z,17.07
2018-08-07T23:05:19.169Z,17.06
2018-08-07T23:07:49.655Z,17.04
2018-08-07T23:10:20.829Z,17.05
2018-08-07T23:12:50.069Z,16.99
2018-08-07T23:15:20.285Z,16.96
2018-08-07T23:17:49.375Z,16.94
2018-08-07T23:20:19.932Z,16.93
2018-08-07T23:22:49.808Z,16.93
2018-08-07T23:25:18.493Z,16.95
2018-08-07T23:27:47.224Z,16.92
2018-08-07T23:30:17.580Z,16.93
2018-08-07T23:32:46.382Z,16.90
2018-08-07T23:35:16.169Z,16.80
2018-08-07T23:37:45.090Z,16.77
2018-08-07T23:40:14.806Z,16.77
2018-08-07T23:42:44.723Z,16.75
2018-08-07T23:45:14.673Z,16.69
2018-08-07T23:47:43.403Z,16.61
2018-08-07T23:50:13.200Z,16.55
2018-08-07T23:52:42.560Z,16.49
2018-08-07T23:55:11.304Z,16.46
2018-08-07T23:57:40.803Z,16.48
